Time;durP1;ratioP1;P1;durP2;ratioP2;P2;SDS_P1;SDS_P2;PMS_P1;PMS_P2;Temp;Humidity;BMP_temperature;BMP_pressure;BME280_temperature;BME280_humidity;BME280_pressure;Samples;Min_cycle;Max_cycle;Signal;HPM_P1;HPM_P2
2023/08/18 00:01:03;;;;;;;7.75;5.32;;;;;;;-145.00;71.59;73047.13;5066523;28;20495;-73
2023/08/18 00:03:29;;;;;;;7.35;4.43;;;;;;;-145.00;71.57;73072.09;5066892;28;20045;-73
2023/08/18 00:05:57;;;;;;;7.00;4.82;;;;;;;-145.00;71.24;73055.44;5066899;28;20500;-73
2023/08/18 00:08:24;;;;;;;5.63;4.35;;;;;;;-145.00;71.59;73042.97;5066575;28;20045;-73
2023/08/18 00:10:50;;;;;;;6.13;4.60;;;;;;;-145.00;71.42;73034.63;5066970;28;20052;-73
2023/08/18 00:13:17;;;;;;;7.95;4.70;;;;;;;-145.00;71.21;73026.31;5066133;28;20045;-73
2023/08/18 00:15:43;;;;;;;7.93;4.57;;;;;;;-145.00;71.27;73022.13;5066844;28;20040;-73
2023/08/18 00:18:10;;;;;;;7.45;4.78;;;;;;;-145.00;71.67;73032.53;5066267;28;20052;-74
2023/08/18 00:20:36;;;;;;;5.97;4.18;;;;;;;-145.00;71.14;73030.47;5066534;28;20510;-73
2023/08/18 00:23:04;;;;;;;8.52;5.15;;;;;;;-145.00;71.28;73028.38;5066545;28;20053;-73
2023/08/18 00:25:31;;;;;;;7.63;4.45;;;;;;;-145.00;71.44;73040.88;5066809;28;20051;-74
2023/08/18 00:27:57;;;;;;;5.50;4.57;;;;;;;-145.00;71.19;73047.13;5066561;28;20757;-74
2023/08/18 00:30:24;;;;;;;7.97;4.88;;;;;;;-145.00;70.84;73049.19;5065857;28;20055;-74
2023/08/18 00:32:51;;;;;;;6.57;4.32;;;;;;;-145.00;70.70;73051.28;5066675;28;20082;-74
2023/08/18 00:35:18;;;;;;;9.40;5.22;;;;;;;-145.00;70.70;73049.19;5066027;28;20045;-74
2023/08/18 00:37:44;;;;;;;6.72;4.30;;;;;;;-145.00;70.82;73051.28;5066790;28;20060;-74
2023/08/18 00:40:13;;;;;;;7.57;4.25;;;;;;;-145.00;70.96;73053.38;5066078;28;20049;-73
2023/08/18 00:42:39;;;;;;;7.72;4.72;;;;;;;-145.00;70.89;73051.28;5066515;28;20048;-73
2023/08/18 00:45:07;;;;;;;5.57;4.53;;;;;;;-145.00;70.89;73047.13;5066152;28;20052;-74
2023/08/18 00:47:34;;;;;;;7.70;4.85;;;;;;;-145.00;70.16;73042.97;5067317;28;20552;-74
2023/08/18 00:50:00;;;;;;;9.90;4.47;;;;;;;-145.00;70.54;73047.13;5067855;28;20531;-74
2023/08/18 00:52:27;;;;;;;8.35;5.38;;;;;;;-145.00;70.36;73049.19;5070516;28;20041;-74
2023/08/18 00:54:54;;;;;;;7.38;4.72;;;;;;;-145.00;70.46;73047.13;5070278;28;20052;-73
2023/08/18 00:57:22;;;;;;;7.32;4.78;;;;;;;-145.00;70.70;73045.03;5069949;28;20057;-74
2023/08/18 00:59:50;;;;;;;9.93;4.70;;;;;;;-145.00;70.25;73051.28;5069952;28;20045;-73
2023/08/18 01:02:18;;;;;;;8.38;4.90;;;;;;;-145.00;70.35;73055.44;5069629;28;20661;-73
2023/08/18 01:04:45;;;;;;;6.63;5.03;;;;;;;-145.00;70.70;73047.13;5070199;28;20487;-73
2023/08/18 01:07:11;;;;;;;7.00;4.88;;;;;;;-145.00;70.33;73047.13;5069946;28;20051;-74
2023/08/18 01:09:38;;;;;;;6.85;4.68;;;;;;;-145.00;70.40;73055.44;5070086;28;20512;-74
2023/08/18 01:12:13;;;;;;;7.05;5.18;;;;;;;-145.00;70.67;73059.59;5069717;28;20044;-74
2023/08/18 01:14:52;;;;;;;6.82;4.93;;;;;;;-145.00;71.08;73055.44;5070215;28;20050;-74
2023/08/18 01:17:26;;;;;;;7.85;4.72;;;;;;;-145.00;70.98;73051.28;5069741;28;20135;-74
2023/08/18 01:19:53;;;;;;;7.05;4.68;;;;;;;-145.00;71.56;73053.38;5069930;28;20060;-73
2023/08/18 01:22:20;;;;;;;6.25;4.40;;;;;;;-145.00;71.79;73051.28;5069644;28;20061;-73
2023/08/18 01:24:48;;;;;;;7.18;5.22;;;;;;;-145.00;71.21;73038.78;5070361;28;20036;-74
2023/08/18 01:27:14;;;;;;;7.47;5.05;;;;;;;-145.00;71.25;73030.47;5070785;28;20135;-74
2023/08/18 01:29:41;;;;;;;6.53;4.70;;;;;;;-145.00;71.51;73047.13;5071260;28;20317;-74
2023/08/18 01:32:10;;;;;;;8.52;4.82;;;;;;;-145.00;71.01;73045.03;5070979;28;20041;-73
2023/08/18 01:34:41;;;;;;;6.90;4.75;;;;;;;-145.00;71.38;73047.13;5072020;28;20063;-74
2023/08/18 01:37:08;;;;;;;6.10;4.45;;;;;;;-145.00;71.21;73047.13;5072292;28;20055;-73
2023/08/18 01:39:35;;;;;;;6.47;5.35;;;;;;;-145.00;71.31;73038.78;5070513;28;20044;-73
2023/08/18 01:42:03;;;;;;;8.68;5.18;;;;;;;-145.00;71.25;73047.13;5073702;28;20052;-74
2023/08/18 01:44:29;;;;;;;7.07;4.85;;;;;;;-145.00;71.30;73042.97;5073519;28;20104;-74
2023/08/18 01:46:56;;;;;;;9.68;5.20;;;;;;;-145.00;71.36;73045.03;5073385;28;20531;-74
2023/08/18 01:49:22;;;;;;;7.55;5.45;;;;;;;-145.00;71.56;73059.59;5073003;28;20056;-74
2023/08/18 01:51:49;;;;;;;7.40;5.28;;;;;;;-145.00;71.37;73055.44;5074149;28;20515;-74
2023/08/18 01:54:16;;;;;;;8.18;5.22;;;;;;;-145.00;72.15;73082.50;5073692;28;20057;-74
2023/08/18 01:56:42;;;;;;;6.80;5.15;;;;;;;-145.00;72.01;73067.94;5073411;28;20416;-74
2023/08/18 01:59:10;;;;;;;7.65;5.47;;;;;;;-145.00;71.34;73057.53;5071108;28;20051;-74
2023/08/18 02:01:37;;;;;;;8.05;5.30;;;;;;;-145.00;70.57;73055.44;5069203;28;20054;-74
2023/08/18 02:04:04;;;;;;;6.30;4.63;;;;;;;-145.00;70.87;73059.59;5069327;28;20079;-73
2023/08/18 02:06:31;;;;;;;6.68;4.60;;;;;;;-145.00;71.10;73061.69;5069353;28;20048;-73
2023/08/18 02:08:57;;;;;;;9.65;5.40;;;;;;;-145.00;70.96;73053.38;5069244;28;20056;-73
2023/08/18 02:11:24;;;;;;;8.77;5.32;;;;;;;-145.00;71.21;73063.78;5068663;28;20053;-74
2023/08/18 02:13:50;;;;;;;11.32;5.47;;;;;;;-145.00;71.70;73076.25;5068926;28;20057;-73
2023/08/18 02:16:18;;;;;;;9.20;5.53;;;;;;;-145.00;71.67;73090.84;5068591;28;20049;-73
2023/08/18 02:18:47;;;;;;;9.35;5.80;;;;;;;-145.00;72.23;73117.91;5068726;28;20052;-73
2023/08/18 02:21:14;;;;;;;8.95;5.70;;;;;;;-145.00;72.53;73132.47;5068399;28;20145;-74
2023/08/18 02:23:41;;;;;;;8.73;5.03;;;;;;;-145.00;72.14;73117.91;5068761;28;20052;-73
2023/08/18 02:26:07;;;;;;;8.35;5.25;;;;;;;-145.00;71.93;73107.50;5067987;28;20044;-73
2023/08/18 02:28:35;;;;;;;8.30;5.38;;;;;;;-145.00;71.43;73101.25;5068707;28;20049;-74
2023/08/18 02:31:03;;;;;;;7.22;5.22;;;;;;;-145.00;71.08;73097.09;5067930;28;20044;-73
2023/08/18 02:33:32;;;;;;;7.00;4.93;;;;;;;-145.00;70.93;73092.91;5068212;28;20055;-73
2023/08/18 02:35:59;;;;;;;7.05;4.68;;;;;;;-145.00;71.24;73092.91;5068514;28;20497;-74
2023/08/18 02:38:26;;;;;;;6.28;5.05;;;;;;;-145.00;71.32;73097.09;5068110;28;20048;-73
2023/08/18 02:40:53;;;;;;;8.88;5.20;;;;;;;-145.00;71.70;73099.16;5068071;28;20048;-74
2023/08/18 02:43:20;;;;;;;7.13;5.32;;;;;;;-145.00;71.66;73105.41;5067590;28;20048;-74
2023/08/18 02:45:47;;;;;;;6.97;5.50;;;;;;;-145.00;71.89;73105.41;5068228;28;20051;-74
2023/08/18 02:48:13;;;;;;;6.72;4.90;;;;;;;-145.00;71.98;73117.91;5067886;28;20048;-73
2023/08/18 02:50:41;;;;;;;7.78;5.22;;;;;;;-145.00;72.01;73113.75;5068244;28;20610;-73
2023/08/18 02:53:08;;;;;;;8.55;4.93;;;;;;;-145.00;72.04;73109.56;5067673;28;20054;-73
2023/08/18 02:55:35;;;;;;;9.43;5.28;;;;;;;-145.00;71.82;73109.56;5068079;28;20048;-74
2023/08/18 02:58:01;;;;;;;5.93;5.00;;;;;;;-145.00;71.93;73107.50;5067761;28;20052;-73
2023/08/18 03:00:28;;;;;;;6.15;4.97;;;;;;;-145.00;71.79;73105.41;5067616;28;20488;-74
2023/08/18 03:02:54;;;;;;;8.00;5.07;;;;;;;-145.00;71.69;73103.31;5067922;28;20060;-73
2023/08/18 03:05:21;;;;;;;6.85;5.00;;;;;;;-145.00;71.42;73105.41;5067357;28;20412;-73
2023/08/18 03:07:49;;;;;;;6.80;4.70;;;;;;;-145.00;71.42;73113.75;5067812;28;20056;-74
2023/08/18 03:10:15;;;;;;;6.82;4.82;;;;;;;-145.00;71.11;73105.41;5067311;28;20055;-73
2023/08/18 03:12:42;;;;;;;7.53;4.75;;;;;;;-145.00;71.13;73103.31;5067764;28;20044;-74
2023/08/18 03:15:09;;;;;;;7.95;4.43;;;;;;;-145.00;71.23;73107.50;5067018;28;20049;-74
2023/08/18 03:17:36;;;;;;;7.50;4.80;;;;;;;-145.00;71.11;73105.41;5067802;28;20044;-74
2023/08/18 03:20:04;;;;;;;8.18;5.15;;;;;;;-145.00;70.98;73097.09;5067255;28;20411;-73
2023/08/18 03:22:32;;;;;;;7.68;4.70;;;;;;;-145.00;70.53;73101.25;5067451;28;20048;-73
2023/08/18 03:25:00;;;;;;;8.68;4.30;;;;;;;-145.00;70.93;73109.56;5067522;28;20060;-74
2023/08/18 03:27:27;;;;;;;7.50;5.07;;;;;;;-145.00;71.30;73109.56;5046915;28;20049;-73
2023/08/18 03:29:55;;;;;;;7.28;5.03;;;;;;;-145.00;71.36;73111.66;5058549;28;20123;-73
2023/08/18 03:32:22;;;;;;;5.97;5.03;;;;;;;-145.00;71.30;73113.75;5066937;28;20060;-73
2023/08/18 03:34:48;;;;;;;7.57;4.57;;;;;;;-145.00;71.12;73113.75;5067428;28;20125;-73
2023/08/18 03:37:15;;;;;;;6.50;4.78;;;;;;;-145.00;71.18;73117.91;5066974;28;20055;-73
2023/08/18 03:39:42;;;;;;;7.78;4.75;;;;;;;-145.00;71.05;73113.75;5067453;28;20055;-73
2023/08/18 03:42:10;;;;;;;7.70;4.60;;;;;;;-145.00;71.16;73122.06;5067429;28;20067;-73
2023/08/18 03:44:36;;;;;;;9.52;5.50;;;;;;;-145.00;72.01;73172.03;5067820;28;20051;-74
2023/08/18 03:47:03;;;;;;;8.93;4.72;;;;;;;-145.00;71.68;73163.72;5067343;28;20044;-73
2023/08/18 03:49:29;;;;;;;9.30;4.75;;;;;;;-145.00;71.47;73163.72;5067317;28;20048;-74
2023/08/18 03:51:56;;;;;;;6.82;5.07;;;;;;;-145.00;71.17;73140.81;5067469;28;20074;-73
2023/08/18 03:54:22;;;;;;;8.90;6.13;;;;;;;-145.00;71.82;73165.78;5066822;28;20044;-73
2023/08/18 03:56:50;;;;;;;7.57;4.65;;;;;;;-145.00;72.16;73172.03;5067391;28;20699;-73
2023/08/18 03:59:18;;;;;;;7.78;5.15;;;;;;;-145.00;71.72;73159.53;5066728;28;20060;-73
2023/08/18 04:01:45;;;;;;;6.40;4.70;;;;;;;-145.00;72.00;73169.94;5067959;28;20074;-73
2023/08/18 04:04:11;;;;;;;9.55;5.05;;;;;;;-145.00;71.59;73159.53;5067524;28;20504;-73
2023/08/18 04:06:38;;;;;;;7.10;4.90;;;;;;;-145.00;71.92;73159.53;5068208;28;20044;-73
2023/08/18 04:09:08;;;;;;;7.80;5.45;;;;;;;-145.00;71.56;73144.97;5071548;28;20059;-73
2023/08/18 04:11:35;;;;;;;9.95;5.20;;;;;;;-145.00;71.06;73142.88;5075594;28;20064;-73
2023/08/18 04:14:02;;;;;;;10.43;5.18;;;;;;;-145.00;71.65;73151.22;5071254;28;20048;-73
2023/08/18 04:16:31;;;;;;;6.80;5.50;;;;;;;-145.00;71.12;73147.06;5066896;28;20048;-72
2023/08/18 04:18:57;;;;;;;7.28;4.68;;;;;;;-145.00;71.30;73134.56;5067317;28;20064;-73
2023/08/18 04:21:24;;;;;;;7.35;5.20;;;;;;;-145.00;71.15;73138.72;5066177;28;20045;-73
2023/08/18 04:23:50;;;;;;;7.28;4.80;;;;;;;-145.00;71.26;73132.47;5066743;28;20067;-73
2023/08/18 04:26:17;;;;;;;8.82;4.97;;;;;;;-145.00;71.18;73136.63;5065885;28;20048;-73
2023/08/18 04:28:43;;;;;;;6.53;4.47;;;;;;;-145.00;71.45;73136.63;5066741;28;20044;-73
2023/08/18 04:31:11;;;;;;;11.20;5.20;;;;;;;-145.00;71.53;73130.41;5066126;28;20041;-73
2023/08/18 04:33:38;;;;;;;8.20;4.93;;;;;;;-145.00;71.24;73130.41;5066721;28;20055;-73
2023/08/18 04:36:05;;;;;;;10.85;5.15;;;;;;;-145.00;71.01;73122.06;5066240;28;20061;-73
2023/08/18 04:38:32;;;;;;;9.50;5.55;;;;;;;-145.00;71.53;73136.63;5066446;28;20048;-73
2023/08/18 04:41:00;;;;;;;12.70;5.85;;;;;;;-145.00;71.93;73144.97;5066892;28;20068;-73
2023/08/18 04:43:27;;;;;;;8.48;5.78;;;;;;;-145.00;72.40;73155.38;5066379;28;20799;-74
2023/08/18 04:45:53;;;;;;;9.00;5.57;;;;;;;-145.00;71.36;73124.16;5067191;28;20049;-74
2023/08/18 04:48:21;;;;;;;7.35;5.40;;;;;;;-145.00;70.47;73113.75;5066575;28;20044;-73
2023/08/18 04:50:49;;;;;;;7.18;4.78;;;;;;;-145.00;70.62;73101.25;5065390;28;20048;-73
2023/08/18 04:53:16;;;;;;;7.72;5.05;;;;;;;-145.00;70.31;73088.75;5066573;28;20052;-73
2023/08/18 04:55:42;;;;;;;7.35;5.15;;;;;;;-145.00;70.47;73082.50;5068828;28;20431;-74
2023/08/18 04:58:12;;;;;;;9.30;5.32;;;;;;;-145.00;69.89;73067.94;5069556;28;20044;-73
2023/08/18 05:00:39;;;;;;;7.22;5.38;;;;;;;-145.00;69.67;73065.84;5069034;28;20045;-74
2023/08/18 05:03:05;;;;;;;7.18;5.07;;;;;;;-145.00;69.32;73063.78;5068573;28;20048;-73
2023/08/18 05:05:33;;;;;;;8.98;5.35;;;;;;;-145.00;68.73;73067.94;5068448;28;20045;-73
2023/08/18 05:08:01;;;;;;;7.03;4.68;;;;;;;-145.00;67.22;73072.09;5069040;28;20057;-73
2023/08/18 05:10:28;;;;;;;7.88;5.28;;;;;;;-145.00;67.02;73072.09;5067502;28;20070;-73
2023/08/18 05:12:54;;;;;;;9.10;4.68;;;;;;;-145.00;67.09;73072.09;5067324;28;20049;-73
2023/08/18 05:15:21;;;;;;;8.75;4.75;;;;;;;-145.00;66.89;73076.25;5069401;28;20057;-73
2023/08/18 05:17:47;;;;;;;9.35;5.18;;;;;;;-145.00;67.85;73092.91;5074164;28;20041;-73
2023/08/18 05:20:14;;;;;;;8.52;5.13;;;;;;;-145.00;67.92;73088.75;5076287;28;20051;-73
2023/08/18 05:22:40;;;;;;;7.10;4.60;;;;;;;-145.00;67.66;73067.94;5076202;28;20049;-73
2023/08/18 05:25:10;;;;;;;7.03;4.88;;;;;;;-145.00;67.90;73061.69;5072145;28;20120;-73
2023/08/18 05:27:37;;;;;;;7.70;4.20;;;;;;;-145.00;68.05;73053.38;5073440;28;20048;-73
2023/08/18 05:30:05;;;;;;;6.38;4.65;;;;;;;-145.00;67.46;73034.63;5071610;28;20081;-73
2023/08/18 05:32:32;;;;;;;8.32;5.25;;;;;;;-145.00;66.72;73026.31;5071763;28;20109;-73
2023/08/18 05:34:58;;;;;;;8.80;5.60;;;;;;;-145.00;65.99;73022.13;5072991;28;20167;-73
2023/08/18 05:37:25;;;;;;;7.93;4.78;;;;;;;-145.00;65.44;73022.13;5074912;28;20052;-73
2023/08/18 05:39:51;;;;;;;7.70;5.13;;;;;;;-145.00;65.49;73017.97;5076742;28;20044;-73
2023/08/18 05:42:19;;;;;;;6.45;5.28;;;;;;;-145.00;65.06;73005.47;5076796;28;20057;-73
2023/08/18 05:44:45;;;;;;;8.63;5.22;;;;;;;-145.00;64.99;72995.06;5077128;28;20439;-73
2023/08/18 05:47:12;;;;;;;7.40;4.75;;;;;;;-145.00;65.10;72995.06;5069932;28;20048;-73
2023/08/18 05:49:39;;;;;;;7.82;4.88;;;;;;;-145.00;65.51;72993.00;5068189;28;20048;-74
2023/08/18 05:52:05;;;;;;;5.47;4.40;;;;;;;-145.00;66.03;72984.66;5069235;28;20467;-73
2023/08/18 05:54:32;;;;;;;9.68;4.97;;;;;;;-145.00;65.62;72997.16;5069674;28;20040;-73
2023/08/18 05:56:58;;;;;;;6.30;4.75;;;;;;;-145.00;65.03;72986.75;5069586;28;20130;-73
2023/08/18 05:59:26;;;;;;;8.15;5.35;;;;;;;-145.00;65.48;72980.50;5069010;28;20049;-73
2023/08/18 06:01:53;;;;;;;7.45;5.05;;;;;;;-145.00;65.37;72972.16;5069065;28;20420;-74
2023/08/18 06:04:19;;;;;;;11.70;6.32;;;;;;;-145.00;65.39;72970.09;5068928;28;20060;-74
2023/08/18 06:06:46;;;;;;;10.38;7.70;;;;;;;-145.00;65.66;72972.16;5069356;28;20049;-74
2023/08/18 06:09:13;;;;;;;8.27;5.38;;;;;;;-145.00;65.54;72963.84;5068922;28;20072;-73
2023/08/18 06:11:39;;;;;;;6.68;4.80;;;;;;;-145.00;65.02;72959.69;5069139;28;20048;-73
2023/08/18 06:14:06;;;;;;;7.95;5.55;;;;;;;-145.00;65.58;72955.50;5068932;28;20261;-73
2023/08/18 06:16:34;;;;;;;9.07;5.82;;;;;;;-145.00;65.43;72955.50;5069172;28;20055;-74
2023/08/18 06:19:00;;;;;;;8.40;5.13;;;;;;;-145.00;65.65;72947.19;5068997;28;20049;-73
2023/08/18 06:21:27;;;;;;;7.57;4.90;;;;;;;-145.00;64.73;72945.09;5068638;28;20070;-73
2023/08/18 06:23:53;;;;;;;7.30;5.10;;;;;;;-145.00;64.91;72936.78;5068728;28;20055;-73
2023/08/18 06:26:20;;;;;;;8.10;5.38;;;;;;;-145.00;64.65;72930.53;5068469;28;20079;-74
2023/08/18 06:28:46;;;;;;;7.38;5.47;;;;;;;-145.00;64.61;72930.53;5068902;28;20044;-73
2023/08/18 06:31:12;;;;;;;6.97;4.95;;;;;;;-145.00;64.11;72930.53;5069013;28;20061;-73
2023/08/18 06:33:40;;;;;;;8.23;5.53;;;;;;;-145.00;63.70;72924.28;5069107;28;20052;-73
2023/08/18 06:36:07;;;;;;;7.22;5.30;;;;;;;-145.00;63.22;72918.03;5068967;28;20044;-73
2023/08/18 06:38:34;;;;;;;9.10;5.22;;;;;;;-145.00;63.42;72918.03;5072430;28;20045;-73
2023/08/18 06:41:00;;;;;;;7.50;5.30;;;;;;;-145.00;63.04;72899.31;5072782;28;20045;-73
2023/08/18 06:43:27;;;;;;;8.07;5.15;;;;;;;-145.00;61.92;72905.56;5072367;28;20514;-73
2023/08/18 06:45:53;;;;;;;6.85;4.43;;;;;;;-145.00;62.06;72897.22;5073190;28;20074;-73
2023/08/18 06:48:20;;;;;;;5.90;5.10;;;;;;;-145.00;61.58;72895.16;5072035;28;20135;-74
2023/08/18 06:50:48;;;;;;;6.20;4.45;;;;;;;-145.00;61.89;72882.66;5072865;28;20051;-74
2023/08/18 06:53:14;;;;;;;7.18;4.80;;;;;;;-145.00;61.37;72868.09;5073992;28;20135;-73
2023/08/18 06:55:41;;;;;;;8.32;4.93;;;;;;;-145.00;60.64;72853.50;5073947;28;20395;-73
2023/08/18 06:58:07;;;;;;;8.15;4.47;;;;;;;-145.00;60.76;72841.00;5075123;28;20044;-74
2023/08/18 07:00:34;;;;;;;6.07;4.20;;;;;;;-145.00;61.45;72830.59;5074476;28;20131;-74
2023/08/18 07:03:00;;;;;;;8.55;3.80;;;;;;;-145.00;61.10;72820.19;5071181;28;20500;-73
2023/08/18 07:05:27;;;;;;;5.35;3.83;;;;;;;-145.00;59.46;72809.78;5068094;28;20044;-73
2023/08/18 07:07:55;;;;;;;8.35;4.10;;;;;;;-145.00;59.28;72801.47;5068636;28;20057;-73
2023/08/18 07:10:22;;;;;;;5.97;4.25;;;;;;;-145.00;58.31;72784.81;5067732;28;20048;-73
2023/08/18 07:12:48;;;;;;;5.25;3.65;;;;;;;-145.00;58.32;72770.25;5067977;28;20052;-73
2023/08/18 07:15:15;;;;;;;4.68;3.67;;;;;;;-145.00;58.24;72770.25;5067401;28;20055;-73
2023/08/18 07:17:42;;;;;;;7.93;4.15;;;;;;;-145.00;58.20;72755.66;5067895;28;20044;-74
2023/08/18 07:20:10;;;;;;;5.03;3.78;;;;;;;-145.00;59.19;72768.16;5067052;28;20071;-74
2023/08/18 07:22:43;;;;;;;5.90;3.53;;;;;;;-145.00;58.24;72743.19;5067773;28;20055;-74
2023/08/18 07:25:11;;;;;;;4.97;3.38;;;;;;;-145.00;59.31;72747.34;5067128;28;20132;-73
2023/08/18 07:27:38;;;;;;;4.45;3.00;;;;;;;-145.00;57.48;72697.38;5067453;28;20044;-73
2023/08/18 07:30:06;;;;;;;6.22;2.70;;;;;;;-145.00;57.44;72747.34;5066972;28;20048;-74
2023/08/18 07:32:32;;;;;;;3.97;2.33;;;;;;;-145.00;56.67;72736.94;5067506;28;20131;-73
2023/08/18 07:34:59;;;;;;;3.47;2.50;;;;;;;-145.00;57.22;72726.53;5067249;28;20053;-74
2023/08/18 07:37:26;;;;;;;5.47;2.60;;;;;;;-145.00;56.86;72751.50;5067187;28;20052;-73
2023/08/18 07:39:52;;;;;;;4.90;2.10;;;;;;;-145.00;54.10;72620.34;5067338;28;20744;-74
2023/08/18 07:42:21;;;;;;;2.55;2.08;;;;;;;-145.00;52.38;72507.94;5066949;28;20052;-74
2023/08/18 07:44:47;;;;;;;4.55;2.28;;;;;;;-145.00;54.47;72405.94;5067696;28;20045;-74
2023/08/18 07:47:14;;;;;;;5.15;2.00;;;;;;;-145.00;49.30;72368.47;5066955;28;20462;-73
2023/08/18 07:49:41;;;;;;;4.53;2.50;;;;;;;-145.00;48.65;72362.25;5067371;28;20049;-75
2023/08/18 07:52:07;;;;;;;4.72;2.20;;;;;;;-145.00;49.64;72316.44;5067028;28;20721;-74
2023/08/18 07:54:34;;;;;;;2.88;1.92;;;;;;;-145.00;47.50;72276.91;5067428;28;20055;-74
2023/08/18 07:57:02;;;;;;;7.63;2.38;;;;;;;-145.00;47.88;72249.84;5067669;28;20063;-74
2023/08/18 07:59:30;;;;;;;3.00;2.17;;;;;;;-145.00;47.14;72264.41;5067204;28;20110;-74
2023/08/18 08:01:56;;;;;;;4.35;1.88;;;;;;;-145.00;45.74;72270.66;5069615;28;20051;-73
2023/08/18 08:04:23;;;;;;;5.72;2.17;;;;;;;-145.00;45.17;72333.09;5069083;28;20412;-74
2023/08/18 08:06:49;;;;;;;5.40;2.20;;;;;;;-145.00;45.11;72314.38;5071968;28;20048;-74
2023/08/18 08:09:16;;;;;;;2.92;2.00;;;;;;;-145.00;46.74;72278.97;5070157;28;20551;-74
2023/08/18 08:11:43;;;;;;;4.10;2.10;;;;;;;-145.00;46.12;72380.97;5069675;28;20043;-75
2023/08/18 08:14:09;;;;;;;2.63;1.90;;;;;;;-145.00;46.62;72360.16;5067777;28;20055;-75
2023/08/18 08:16:37;;;;;;;4.80;2.03;;;;;;;-145.00;48.15;72343.50;5069334;28;20045;-74
2023/08/18 08:19:05;;;;;;;3.40;1.77;;;;;;;-145.00;45.57;72339.34;5069106;28;20048;-74
2023/08/18 08:21:31;;;;;;;5.05;2.15;;;;;;;-145.00;44.38;72308.13;5069222;28;20044;-75
2023/08/18 08:23:58;;;;;;;6.18;2.20;;;;;;;-145.00;43.89;72241.50;5070475;28;20432;-74
2023/08/18 08:26:24;;;;;;;2.72;1.95;;;;;;;-145.00;42.64;72256.09;5070760;28;20048;-74
2023/08/18 08:28:51;;;;;;;6.20;1.90;;;;;;;-145.00;43.97;72281.06;5069368;28;20059;-74
2023/08/18 08:31:17;;;;;;;5.82;1.80;;;;;;;-145.00;44.12;72295.63;5068084;28;20052;-74
2023/08/18 08:33:45;;;;;;;2.17;1.75;;;;;;;-145.00;41.86;72224.84;5068456;28;20132;-75
2023/08/18 08:36:11;;;;;;;3.55;1.80;;;;;;;-145.00;43.09;72193.63;5066901;28;20408;-74
2023/08/18 08:38:38;;;;;;;2.97;2.10;;;;;;;-145.00;44.45;72251.91;5067347;28;20051;-75
2023/08/18 08:41:05;;;;;;;3.35;1.95;;;;;;;-145.00;44.13;72256.09;5066471;28;20494;-75
2023/08/18 08:43:31;;;;;;;5.75;2.08;;;;;;;-145.00;44.19;72172.81;5066693;28;20053;-74
2023/08/18 08:46:00;;;;;;;5.20;2.50;;;;;;;-145.00;43.86;72147.84;5066633;28;20044;-74
2023/08/18 08:48:39;;;;;;;4.15;2.38;;;;;;;-145.00;44.75;72085.41;5066318;28;20742;-74
2023/08/18 08:51:12;;;;;;;3.15;2.05;;;;;;;-145.00;44.37;72035.44;5066543;28;20504;-74
2023/08/18 08:53:42;;;;;;;3.05;1.88;;;;;;;-145.00;42.14;71993.81;5066677;28;20052;-74
2023/08/18 08:56:10;;;;;;;3.83;1.88;;;;;;;-145.00;42.17;72006.31;5066299;28;20049;-74
2023/08/18 08:58:37;;;;;;;6.13;2.45;;;;;;;-145.00;42.43;72139.53;5066760;28;20052;-74
2023/08/18 09:01:06;;;;;;;3.63;2.20;;;;;;;-145.00;44.54;72039.63;5065753;28;20045;-74
2023/08/18 09:03:34;;;;;;;3.35;2.33;;;;;;;-145.00;43.00;71975.09;5066371;28;20777;-74
2023/08/18 09:06:00;;;;;;;4.18;2.60;;;;;;;-145.00;42.05;71937.63;5066650;28;20530;-74
2023/08/18 09:08:28;;;;;;;4.95;2.60;;;;;;;-145.00;42.96;71923.06;5066101;28;20048;-74
2023/08/18 09:10:55;;;;;;;2.70;2.03;;;;;;;-145.00;42.48;71885.59;5067076;28;20052;-74
2023/08/18 09:13:22;;;;;;;3.90;2.55;;;;;;;-145.00;41.45;71900.16;5069851;28;20508;-74
2023/08/18 09:15:49;;;;;;;3.92;2.50;;;;;;;-145.00;40.77;71904.31;5070106;28;20055;-74
2023/08/18 09:18:15;;;;;;;5.50;2.70;;;;;;;-145.00;41.16;71914.72;5069786;28;20048;-75
2023/08/18 09:20:42;;;;;;;4.15;2.83;;;;;;;-145.00;41.35;71841.91;5069861;28;20045;-74
2023/08/18 09:23:09;;;;;;;3.22;2.20;;;;;;;-145.00;40.28;71823.16;5069531;28;20052;-74
2023/08/18 09:25:37;;;;;;;3.67;2.60;;;;;;;-145.00;40.13;71958.44;5069907;28;20041;-74
2023/08/18 09:28:05;;;;;;;5.45;2.50;;;;;;;-145.00;40.96;71852.28;5069532;28;20052;-74
2023/08/18 09:30:32;;;;;;;6.80;2.40;;;;;;;-145.00;40.16;71802.34;5069237;28;20052;-74
2023/08/18 09:33:00;;;;;;;4.78;3.17;;;;;;;-145.00;40.84;71787.78;5069699;28;20059;-74
2023/08/18 09:35:32;;;;;;;5.65;3.00;;;;;;;-145.00;38.83;71794.03;5069356;28;20414;-74
2023/08/18 09:37:58;;;;;;;3.72;2.75;;;;;;;-145.00;39.49;71816.91;5069571;28;20415;-75
2023/08/18 09:40:25;;;;;;;5.53;2.35;;;;;;;-145.00;39.36;71810.66;5069287;28;20389;-74
2023/08/18 09:42:53;;;;;;;6.55;2.83;;;;;;;-145.00;39.25;71825.25;5069589;28;20059;-74
2023/08/18 09:45:23;;;;;;;4.13;2.85;;;;;;;-145.00;39.75;71843.97;5068912;28;20040;-74
2023/08/18 09:47:54;;;;;;;4.80;3.05;;;;;;;-145.00;40.86;72052.09;5069524;28;20056;-74
2023/08/18 09:50:23;;;;;;;3.78;2.50;;;;;;;-145.00;41.81;72014.63;5069389;28;20056;-74
2023/08/18 09:52:53;;;;;;;4.45;2.58;;;;;;;-145.00;40.90;71960.53;5069680;28;20093;-74
2023/08/18 09:55:26;;;;;;;4.50;3.00;;;;;;;-145.00;40.57;71960.53;5069566;28;20512;-74
2023/08/18 09:57:57;;;;;;;;;;;;;;;-145.00;39.64;71960.53;5072147;28;20090;-74
2023/08/18 10:00:26;;;;;;;5.28;2.88;;;;;;;-145.00;41.39;71943.88;5070616;28;19928;-73
2023/08/18 10:02:55;;;;;;;3.70;2.60;;;;;;;-145.00;42.04;71906.41;5071250;28;20767;-74
2023/08/18 10:05:22;;;;;;;3.25;2.30;;;;;;;-145.00;40.47;71866.88;5069633;28;20052;-74
2023/08/18 10:07:49;;;;;;;3.38;2.60;;;;;;;-145.00;40.46;71860.63;5070144;28;20602;-74
2023/08/18 10:10:16;;;;;;;2.53;2.08;;;;;;;-145.00;38.05;71835.66;5068775;28;20052;-74
2023/08/18 10:12:44;;;;;;;6.35;2.60;;;;;;;-145.00;38.48;71835.66;5067621;28;20049;-75
2023/08/18 10:15:13;;;;;;;4.20;2.58;;;;;;;-145.00;40.21;71819.00;5068238;28;20059;-75
2023/08/18 10:17:40;;;;;;;6.65;2.47;;;;;;;-145.00;40.65;71823.16;5068746;28;20045;-75
2023/08/18 10:20:11;;;;;;;2.97;2.20;;;;;;;-145.00;39.09;71781.53;5068569;28;20422;-75
2023/08/18 10:22:38;;;;;;;4.22;3.20;;;;;;;-145.00;37.21;71771.13;5067666;28;20045;-74
2023/08/18 10:25:07;;;;;;;5.60;2.92;;;;;;;-145.00;38.21;71848.13;5068417;28;20045;-75
2023/08/18 10:27:37;;;;;;;2.80;2.33;;;;;;;-145.00;40.74;72037.53;5069031;28;20054;-75
2023/08/18 10:30:26;;;;;;;2.60;2.25;;;;;;;-145.00;39.43;71881.44;5068097;28;20053;-74
2023/08/18 10:32:54;;;;;;;7.80;4.13;;;;;;;-145.00;39.95;71823.16;5062304;28;20121;-75
2023/08/18 10:35:22;;;;;;;3.45;2.10;;;;;;;-145.00;39.05;71798.19;5068091;28;20097;-75
2023/08/18 10:37:51;;;;;;;3.78;2.70;;;;;;;-145.00;39.64;71769.03;5068626;28;20044;-75
2023/08/18 10:40:24;;;;;;;2.92;2.35;;;;;;;-145.00;38.68;71764.88;5068143;28;20519;-74
2023/08/18 10:42:51;;;;;;;2.38;1.80;;;;;;;-145.00;37.60;71760.72;5068574;28;20117;-75
2023/08/18 10:45:28;;;;;;;3.35;2.22;;;;;;;-145.00;37.43;71764.88;5067855;28;20075;-75
2023/08/18 10:47:57;;;;;;;3.05;2.15;;;;;;;-145.00;36.87;71752.41;5068581;28;20048;-74
2023/08/18 10:50:24;;;;;;;4.85;2.20;;;;;;;-145.00;38.50;71756.56;5067832;28;20132;-75
2023/08/18 10:52:52;;;;;;;4.40;2.20;;;;;;;-145.00;36.96;71727.41;5068169;28;20048;-74
2023/08/18 10:55:18;;;;;;;2.80;1.98;;;;;;;-145.00;36.03;71712.84;5067739;28;20049;-74
2023/08/18 10:57:46;;;;;;;3.95;2.22;;;;;;;-145.00;35.97;71794.03;5068074;28;20052;-74
2023/08/18 11:00:14;;;;;;;4.22;2.28;;;;;;;-145.00;36.90;71744.06;5067451;28;20048;-74
2023/08/18 11:02:43;;;;;;;2.50;2.30;;;;;;;-145.00;37.41;71756.56;5067907;28;20131;-74
2023/08/18 11:05:11;;;;;;;3.15;1.90;;;;;;;-145.00;36.66;71725.34;5067389;28;20102;-74
2023/08/18 11:07:38;;;;;;;3.83;2.22;;;;;;;-145.00;35.44;71706.63;5068639;28;20059;-75
2023/08/18 11:10:14;;;;;;;3.70;1.90;;;;;;;-145.00;34.94;71756.56;5071597;28;20455;-74
2023/08/18 11:12:41;;;;;;;2.78;2.08;;;;;;;-145.00;36.60;71825.25;5071212;28;20078;-75
2023/08/18 11:15:09;;;;;;;4.75;2.03;;;;;;;-145.00;37.05;71798.19;5069448;28;20075;-75
2023/08/18 11:17:35;;;;;;;3.20;2.58;;;;;;;-145.00;36.68;71802.34;5070972;28;20049;-75